TAF Text Data
IDs:
Format:
Raw Decoded Include METAR

Data at: 0237 UTC 29 Nov 2020

KCHA 282320Z 2900/2924 VRB03KT P6SM FEW250
  FM291200 00000KT P6SM BKN027
  PROB30 2920/2922 4SM -SHRA BR OVC008
  FM292200 12005KT P6SM -SHRA OVC020